sensor_id;sensor_type;location;lat;lon;timestamp;P1;durP1;ratioP1;P2;durP2;ratioP2
20067;SDS011;10194;50.824;7.134;2022-08-04T00:01:06;4.80;;;3.22;;
20067;SDS011;10194;50.824;7.134;2022-08-04T00:04:02;4.00;;;3.13;;
20067;SDS011;10194;50.824;7.134;2022-08-04T00:06:37;5.30;;;3.05;;
20067;SDS011;10194;50.824;7.134;2022-08-04T00:09:21;4.80;;;3.05;;
20067;SDS011;10194;50.824;7.134;2022-08-04T00:12:03;4.28;;;3.03;;
20067;SDS011;10194;50.824;7.134;2022-08-04T00:14:33;3.97;;;3.05;;
20067;SDS011;10194;50.824;7.134;2022-08-04T00:17:02;3.85;;;3.00;;
20067;SDS011;10194;50.824;7.134;2022-08-04T00:19:40;4.45;;;3.05;;
20067;SDS011;10194;50.824;7.134;2022-08-04T00:22:12;5.43;;;2.88;;
20067;SDS011;10194;50.824;7.134;2022-08-04T00:24:42;4.75;;;3.00;;
20067;SDS011;10194;50.824;7.134;2022-08-04T00:27:08;3.95;;;3.08;;
20067;SDS011;10194;50.824;7.134;2022-08-04T00:29:37;4.68;;;3.20;;
20067;SDS011;10194;50.824;7.134;2022-08-04T00:32:03;5.85;;;3.13;;
20067;SDS011;10194;50.824;7.134;2022-08-04T00:34:33;7.32;;;3.33;;
20067;SDS011;10194;50.824;7.134;2022-08-04T00:37:00;5.72;;;3.10;;
20067;SDS011;10194;50.824;7.134;2022-08-04T00:39:27;5.10;;;3.33;;
20067;SDS011;10194;50.824;7.134;2022-08-04T00:48:01;6.88;;;3.22;;
20067;SDS011;10194;50.824;7.134;2022-08-04T00:57:33;5.55;;;3.88;;
20067;SDS011;10194;50.824;7.134;2022-08-04T01:00:39;6.65;;;3.67;;
20067;SDS011;10194;50.824;7.134;2022-08-04T01:03:40;6.72;;;4.40;;
20067;SDS011;10194;50.824;7.134;2022-08-04T01:09:10;10.50;;;3.97;;
20067;SDS011;10194;50.824;7.134;2022-08-04T01:20:25;3.97;;;3.10;;
20067;SDS011;10194;50.824;7.134;2022-08-04T01:26:12;4.43;;;3.03;;
20067;SDS011;10194;50.824;7.134;2022-08-04T01:29:15;5.78;;;3.42;;
20067;SDS011;10194;50.824;7.134;2022-08-04T01:34:22;4.72;;;3.20;;
20067;SDS011;10194;50.824;7.134;2022-08-04T01:36:59;4.90;;;3.30;;
20067;SDS011;10194;50.824;7.134;2022-08-04T01:42:28;4.93;;;3.20;;
20067;SDS011;10194;50.824;7.134;2022-08-04T01:44:57;4.90;;;3.25;;
20067;SDS011;10194;50.824;7.134;2022-08-04T01:47:28;3.95;;;3.10;;
20067;SDS011;10194;50.824;7.134;2022-08-04T01:49:58;4.85;;;3.25;;
20067;SDS011;10194;50.824;7.134;2022-08-04T01:52:37;5.20;;;3.15;;
20067;SDS011;10194;50.824;7.134;2022-08-04T01:55:06;3.65;;;3.25;;
20067;SDS011;10194;50.824;7.134;2022-08-04T01:57:34;3.75;;;3.15;;
20067;SDS011;10194;50.824;7.134;2022-08-04T02:00:16;6.13;;;3.42;;
20067;SDS011;10194;50.824;7.134;2022-08-04T02:02:49;5.60;;;3.25;;
20067;SDS011;10194;50.824;7.134;2022-08-04T02:05:16;3.63;;;3.13;;
20067;SDS011;10194;50.824;7.134;2022-08-04T02:10:52;6.03;;;3.42;;
20067;SDS011;10194;50.824;7.134;2022-08-04T02:13:33;5.78;;;3.85;;
20067;SDS011;10194;50.824;7.134;2022-08-04T02:21:42;4.20;;;3.55;;
20067;SDS011;10194;50.824;7.134;2022-08-04T02:24:13;7.45;;;3.90;;
20067;SDS011;10194;50.824;7.134;2022-08-04T02:26:43;5.15;;;3.58;;
20067;SDS011;10194;50.824;7.134;2022-08-04T02:32:05;4.95;;;3.70;;
20067;SDS011;10194;50.824;7.134;2022-08-04T02:34:47;4.45;;;3.45;;
20067;SDS011;10194;50.824;7.134;2022-08-04T02:37:20;4.00;;;3.35;;
20067;SDS011;10194;50.824;7.134;2022-08-04T02:39:49;4.80;;;3.60;;
20067;SDS011;10194;50.824;7.134;2022-08-04T02:42:18;8.93;;;4.35;;
20067;SDS011;10194;50.824;7.134;2022-08-04T02:44:47;7.22;;;3.88;;
20067;SDS011;10194;50.824;7.134;2022-08-04T02:47:16;7.55;;;4.15;;
20067;SDS011;10194;50.824;7.134;2022-08-04T02:49:44;7.88;;;4.60;;
20067;SDS011;10194;50.824;7.134;2022-08-04T02:52:11;5.32;;;3.97;;
20067;SDS011;10194;50.824;7.134;2022-08-04T02:54:39;6.28;;;4.50;;
20067;SDS011;10194;50.824;7.134;2022-08-04T02:57:11;6.18;;;4.40;;
20067;SDS011;10194;50.824;7.134;2022-08-04T03:25:07;5.65;;;3.65;;
20067;SDS011;10194;50.824;7.134;2022-08-04T03:46:13;7.50;;;4.43;;
20067;SDS011;10194;50.824;7.134;2022-08-04T03:52:00;5.40;;;3.90;;
20067;SDS011;10194;50.824;7.134;2022-08-04T04:07:16;5.45;;;3.70;;
20067;SDS011;10194;50.824;7.134;2022-08-04T04:10:16;5.45;;;3.90;;
20067;SDS011;10194;50.824;7.134;2022-08-04T04:25:15;4.78;;;3.63;;
20067;SDS011;10194;50.824;7.134;2022-08-04T04:31:32;5.32;;;4.38;;
20067;SDS011;10194;50.824;7.134;2022-08-04T04:49:30;5.53;;;3.45;;
20067;SDS011;10194;50.824;7.134;2022-08-04T04:57:51;6.53;;;3.30;;
20067;SDS011;10194;50.824;7.134;2022-08-04T05:00:22;7.95;;;3.90;;
20067;SDS011;10194;50.824;7.134;2022-08-04T05:14:20;5.72;;;4.40;;
20067;SDS011;10194;50.824;7.134;2022-08-04T05:25:18;11.38;;;4.35;;
20067;SDS011;10194;50.824;7.134;2022-08-04T05:28:21;5.82;;;4.00;;
20067;SDS011;10194;50.824;7.134;2022-08-04T05:30:53;5.93;;;4.05;;
20067;SDS011;10194;50.824;7.134;2022-08-04T05:33:26;4.75;;;3.80;;
20067;SDS011;10194;50.824;7.134;2022-08-04T05:36:06;5.45;;;3.78;;
20067;SDS011;10194;50.824;7.134;2022-08-04T05:38:42;5.63;;;3.72;;
20067;SDS011;10194;50.824;7.134;2022-08-04T05:41:10;10.10;;;3.92;;
20067;SDS011;10194;50.824;7.134;2022-08-04T05:43:37;4.35;;;3.78;;
20067;SDS011;10194;50.824;7.134;2022-08-04T05:46:07;8.38;;;4.10;;
20067;SDS011;10194;50.824;7.134;2022-08-04T05:48:34;5.18;;;3.80;;
20067;SDS011;10194;50.824;7.134;2022-08-04T05:51:02;9.18;;;4.70;;
20067;SDS011;10194;50.824;7.134;2022-08-04T05:53:29;11.10;;;4.68;;
20067;SDS011;10194;50.824;7.134;2022-08-04T05:55:57;5.65;;;3.83;;
20067;SDS011;10194;50.824;7.134;2022-08-04T05:58:23;5.05;;;3.85;;
20067;SDS011;10194;50.824;7.134;2022-08-04T06:00:51;5.82;;;4.20;;
20067;SDS011;10194;50.824;7.134;2022-08-04T06:03:18;6.78;;;4.10;;
20067;SDS011;10194;50.824;7.134;2022-08-04T06:05:47;5.95;;;3.97;;
20067;SDS011;10194;50.824;7.134;2022-08-04T06:08:14;6.40;;;4.97;;
20067;SDS011;10194;50.824;7.134;2022-08-04T06:10:40;7.97;;;4.18;;
20067;SDS011;10194;50.824;7.134;2022-08-04T06:13:12;5.93;;;3.90;;
20067;SDS011;10194;50.824;7.134;2022-08-04T06:15:42;9.25;;;4.35;;
20067;SDS011;10194;50.824;7.134;2022-08-04T06:18:12;5.80;;;3.72;;
20067;SDS011;10194;50.824;7.134;2022-08-04T06:20:40;4.28;;;3.75;;
20067;SDS011;10194;50.824;7.134;2022-08-04T06:23:08;6.35;;;3.70;;
20067;SDS011;10194;50.824;7.134;2022-08-04T06:25:44;6.00;;;3.53;;
20067;SDS011;10194;50.824;7.134;2022-08-04T06:28:14;5.88;;;4.15;;
20067;SDS011;10194;50.824;7.134;2022-08-04T06:30:41;5.50;;;3.85;;
20067;SDS011;10194;50.824;7.134;2022-08-04T06:33:12;4.95;;;3.50;;
20067;SDS011;10194;50.824;7.134;2022-08-04T06:35:50;5.70;;;3.83;;
20067;SDS011;10194;50.824;7.134;2022-08-04T06:38:23;7.65;;;3.90;;
20067;SDS011;10194;50.824;7.134;2022-08-04T06:40:51;6.50;;;4.00;;
20067;SDS011;10194;50.824;7.134;2022-08-04T06:43:19;5.28;;;3.75;;
20067;SDS011;10194;50.824;7.134;2022-08-04T06:45:46;4.93;;;4.38;;
20067;SDS011;10194;50.824;7.134;2022-08-04T06:48:13;5.15;;;3.88;;
20067;SDS011;10194;50.824;7.134;2022-08-04T06:50:46;5.70;;;3.85;;
20067;SDS011;10194;50.824;7.134;2022-08-04T06:53:14;6.72;;;3.85;;
20067;SDS011;10194;50.824;7.134;2022-08-04T06:55:41;6.00;;;3.95;;
20067;SDS011;10194;50.824;7.134;2022-08-04T06:58:10;5.43;;;4.00;;
20067;SDS011;10194;50.824;7.134;2022-08-04T07:00:38;7.55;;;3.47;;
20067;SDS011;10194;50.824;7.134;2022-08-04T07:03:12;5.70;;;3.70;;
20067;SDS011;10194;50.824;7.134;2022-08-04T07:05:40;6.10;;;3.78;;
20067;SDS011;10194;50.824;7.134;2022-08-04T07:08:08;4.85;;;3.80;;
20067;SDS011;10194;50.824;7.134;2022-08-04T07:10:35;8.75;;;3.63;;
20067;SDS011;10194;50.824;7.134;2022-08-04T07:13:02;5.50;;;3.60;;
20067;SDS011;10194;50.824;7.134;2022-08-04T07:15:28;6.72;;;3.50;;
20067;SDS011;10194;50.824;7.134;2022-08-04T07:17:55;9.15;;;3.60;;
20067;SDS011;10194;50.824;7.134;2022-08-04T07:20:28;5.10;;;3.40;;
20067;SDS011;10194;50.824;7.134;2022-08-04T07:22:54;4.03;;;3.60;;
20067;SDS011;10194;50.824;7.134;2022-08-04T07:25:21;8.73;;;3.80;;
20067;SDS011;10194;50.824;7.134;2022-08-04T07:27:48;3.88;;;3.50;;
20067;SDS011;10194;50.824;7.134;2022-08-04T07:30:14;4.07;;;3.63;;
20067;SDS011;10194;50.824;7.134;2022-08-04T07:32:41;4.60;;;3.60;;
20067;SDS011;10194;50.824;7.134;2022-08-04T07:35:10;5.13;;;4.13;;
20067;SDS011;10194;50.824;7.134;2022-08-04T07:37:38;3.95;;;3.47;;
20067;SDS011;10194;50.824;7.134;2022-08-04T07:40:04;4.35;;;3.40;;
20067;SDS011;10194;50.824;7.134;2022-08-04T07:42:30;4.50;;;3.67;;
20067;SDS011;10194;50.824;7.134;2022-08-04T07:44:57;4.78;;;3.40;;
20067;SDS011;10194;50.824;7.134;2022-08-04T07:47:23;4.70;;;3.40;;
20067;SDS011;10194;50.824;7.134;2022-08-04T07:49:49;5.20;;;3.63;;
20067;SDS011;10194;50.824;7.134;2022-08-04T07:52:15;5.28;;;3.42;;
20067;SDS011;10194;50.824;7.134;2022-08-04T07:54:41;5.38;;;3.90;;
20067;SDS011;10194;50.824;7.134;2022-08-04T07:57:07;6.40;;;4.18;;
20067;SDS011;10194;50.824;7.134;2022-08-04T07:59:34;5.43;;;3.80;;
20067;SDS011;10194;50.824;7.134;2022-08-04T08:02:00;9.60;;;3.78;;
20067;SDS011;10194;50.824;7.134;2022-08-04T08:04:27;4.45;;;3.78;;
20067;SDS011;10194;50.824;7.134;2022-08-04T08:06:54;5.88;;;3.63;;
20067;SDS011;10194;50.824;7.134;2022-08-04T08:09:22;8.40;;;3.47;;
20067;SDS011;10194;50.824;7.134;2022-08-04T08:11:50;6.35;;;4.00;;
20067;SDS011;10194;50.824;7.134;2022-08-04T08:14:17;4.90;;;3.55;;
20067;SDS011;10194;50.824;7.134;2022-08-04T08:16:44;4.75;;;3.65;;
20067;SDS011;10194;50.824;7.134;2022-08-04T08:19:11;5.88;;;3.70;;
20067;SDS011;10194;50.824;7.134;2022-08-04T08:21:38;5.97;;;3.40;;
20067;SDS011;10194;50.824;7.134;2022-08-04T08:24:05;4.65;;;3.53;;
20067;SDS011;10194;50.824;7.134;2022-08-04T08:26:31;4.40;;;3.50;;
20067;SDS011;10194;50.824;7.134;2022-08-04T08:28:58;6.03;;;3.33;;
20067;SDS011;10194;50.824;7.134;2022-08-04T08:31:24;4.80;;;3.63;;
20067;SDS011;10194;50.824;7.134;2022-08-04T08:33:50;4.05;;;3.65;;
20067;SDS011;10194;50.824;7.134;2022-08-04T08:36:34;6.90;;;3.65;;
20067;SDS011;10194;50.824;7.134;2022-08-04T08:45:15;5.55;;;3.05;;
20067;SDS011;10194;50.824;7.134;2022-08-04T08:54:53;4.68;;;3.47;;
20067;SDS011;10194;50.824;7.134;2022-08-04T09:15:35;4.57;;;2.78;;
20067;SDS011;10194;50.824;7.134;2022-08-04T09:18:44;4.35;;;2.60;;
20067;SDS011;10194;50.824;7.134;2022-08-04T09:21:34;2.53;;;2.33;;
20067;SDS011;10194;50.824;7.134;2022-08-04T09:26:49;2.58;;;2.38;;
20067;SDS011;10194;50.824;7.134;2022-08-04T09:35:22;7.07;;;2.60;;
20067;SDS011;10194;50.824;7.134;2022-08-04T09:38:26;3.80;;;2.78;;
20067;SDS011;10194;50.824;7.134;2022-08-04T09:46:34;2.75;;;2.20;;
20067;SDS011;10194;50.824;7.134;2022-08-04T09:49:12;2.65;;;2.20;;
20067;SDS011;10194;50.824;7.134;2022-08-04T09:54:36;8.38;;;2.38;;
20067;SDS011;10194;50.824;7.134;2022-08-04T09:57:27;6.07;;;2.15;;
20067;SDS011;10194;50.824;7.134;2022-08-04T10:00:07;2.58;;;2.30;;
20067;SDS011;10194;50.824;7.134;2022-08-04T10:02:38;3.22;;;2.17;;
20067;SDS011;10194;50.824;7.134;2022-08-04T10:05:39;2.97;;;2.50;;
20067;SDS011;10194;50.824;7.134;2022-08-04T10:14:42;2.20;;;2.00;;
20067;SDS011;10194;50.824;7.134;2022-08-04T10:17:50;3.40;;;2.17;;
20067;SDS011;10194;50.824;7.134;2022-08-04T10:24:08;5.57;;;2.47;;
20067;SDS011;10194;50.824;7.134;2022-08-04T10:27:08;5.60;;;2.30;;
20067;SDS011;10194;50.824;7.134;2022-08-04T10:29:44;2.53;;;2.33;;
20067;SDS011;10194;50.824;7.134;2022-08-04T10:32:20;5.78;;;2.30;;
20067;SDS011;10194;50.824;7.134;2022-08-04T10:35:12;3.15;;;2.38;;
20067;SDS011;10194;50.824;7.134;2022-08-04T10:40:47;4.10;;;2.20;;
20067;SDS011;10194;50.824;7.134;2022-08-04T10:44:01;5.18;;;2.20;;
20067;SDS011;10194;50.824;7.134;2022-08-04T10:46:56;2.55;;;2.00;;
20067;SDS011;10194;50.824;7.134;2022-08-04T10:57:38;2.67;;;1.80;;
20067;SDS011;10194;50.824;7.134;2022-08-04T11:00:14;3.58;;;2.10;;
20067;SDS011;10194;50.824;7.134;2022-08-04T11:05:35;2.92;;;2.10;;
20067;SDS011;10194;50.824;7.134;2022-08-04T11:11:00;2.15;;;2.00;;
20067;SDS011;10194;50.824;7.134;2022-08-04T11:14:05;2.47;;;2.15;;
20067;SDS011;10194;50.824;7.134;2022-08-04T11:16:46;4.75;;;2.40;;
20067;SDS011;10194;50.824;7.134;2022-08-04T11:19:29;2.67;;;2.08;;
20067;SDS011;10194;50.824;7.134;2022-08-04T11:30:49;2.40;;;2.15;;
20067;SDS011;10194;50.824;7.134;2022-08-04T11:39:11;5.55;;;2.35;;
20067;SDS011;10194;50.824;7.134;2022-08-04T11:45:02;3.80;;;2.63;;
20067;SDS011;10194;50.824;7.134;2022-08-04T11:47:39;4.15;;;2.30;;
20067;SDS011;10194;50.824;7.134;2022-08-04T11:50:28;2.58;;;2.33;;
20067;SDS011;10194;50.824;7.134;2022-08-04T11:53:22;2.20;;;2.03;;
20067;SDS011;10194;50.824;7.134;2022-08-04T11:55:51;6.68;;;2.03;;
20067;SDS011;10194;50.824;7.134;2022-08-04T11:58:23;4.20;;;2.35;;
20067;SDS011;10194;50.824;7.134;2022-08-04T12:01:09;2.45;;;2.13;;
20067;SDS011;10194;50.824;7.134;2022-08-04T12:07:00;10.85;;;3.45;;
20067;SDS011;10194;50.824;7.134;2022-08-04T12:13:17;6.05;;;2.58;;
20067;SDS011;10194;50.824;7.134;2022-08-04T12:18:54;5.50;;;2.30;;
20067;SDS011;10194;50.824;7.134;2022-08-04T12:21:39;4.63;;;2.40;;
20067;SDS011;10194;50.824;7.134;2022-08-04T12:24:19;4.72;;;2.50;;
20067;SDS011;10194;50.824;7.134;2022-08-04T12:26:56;4.53;;;2.67;;
20067;SDS011;10194;50.824;7.134;2022-08-04T12:29:30;5.53;;;3.78;;
20067;SDS011;10194;50.824;7.134;2022-08-04T12:32:19;6.00;;;3.50;;
20067;SDS011;10194;50.824;7.134;2022-08-04T12:34:57;4.03;;;3.60;;
20067;SDS011;10194;50.824;7.134;2022-08-04T12:38:06;4.63;;;3.10;;
20067;SDS011;10194;50.824;7.134;2022-08-04T12:43:57;5.90;;;2.78;;
20067;SDS011;10194;50.824;7.134;2022-08-04T12:46:07;6.95;;;2.70;;
20067;SDS011;10194;50.824;7.134;2022-08-04T12:48:36;4.38;;;2.30;;
20067;SDS011;10194;50.824;7.134;2022-08-04T12:51:05;5.10;;;2.63;;
20067;SDS011;10194;50.824;7.134;2022-08-04T12:53:33;3.75;;;2.20;;
20067;SDS011;10194;50.824;7.134;2022-08-04T12:56:06;3.33;;;2.88;;
20067;SDS011;10194;50.824;7.134;2022-08-04T12:58:45;6.40;;;3.70;;
20067;SDS011;10194;50.824;7.134;2022-08-04T13:01:18;7.78;;;3.30;;
20067;SDS011;10194;50.824;7.134;2022-08-04T13:03:46;3.53;;;2.80;;
20067;SDS011;10194;50.824;7.134;2022-08-04T13:06:28;4.72;;;2.40;;
20067;SDS011;10194;50.824;7.134;2022-08-04T13:09:10;4.93;;;3.45;;
20067;SDS011;10194;50.824;7.134;2022-08-04T13:12:01;3.50;;;2.50;;
20067;SDS011;10194;50.824;7.134;2022-08-04T13:14:49;6.00;;;3.17;;
20067;SDS011;10194;50.824;7.134;2022-08-04T13:17:24;7.07;;;3.78;;
20067;SDS011;10194;50.824;7.134;2022-08-04T13:19:50;5.07;;;3.58;;
20067;SDS011;10194;50.824;7.134;2022-08-04T13:22:25;7.88;;;3.88;;
20067;SDS011;10194;50.824;7.134;2022-08-04T13:24:52;8.07;;;3.75;;
20067;SDS011;10194;50.824;7.134;2022-08-04T13:27:22;5.68;;;3.45;;
20067;SDS011;10194;50.824;7.134;2022-08-04T13:29:49;6.68;;;3.78;;
20067;SDS011;10194;50.824;7.134;2022-08-04T13:32:19;6.35;;;3.42;;
20067;SDS011;10194;50.824;7.134;2022-08-04T13:34:48;5.03;;;2.80;;
20067;SDS011;10194;50.824;7.134;2022-08-04T13:37:17;6.82;;;2.60;;
20067;SDS011;10194;50.824;7.134;2022-08-04T13:39:50;7.57;;;2.80;;
20067;SDS011;10194;50.824;7.134;2022-08-04T13:42:16;3.75;;;2.80;;
20067;SDS011;10194;50.824;7.134;2022-08-04T13:44:46;9.88;;;3.47;;
20067;SDS011;10194;50.824;7.134;2022-08-04T13:47:14;6.90;;;2.78;;
20067;SDS011;10194;50.824;7.134;2022-08-04T13:50:07;5.15;;;3.20;;
20067;SDS011;10194;50.824;7.134;2022-08-04T13:52:44;12.00;;;3.30;;
20067;SDS011;10194;50.824;7.134;2022-08-04T13:55:33;5.68;;;4.00;;
20067;SDS011;10194;50.824;7.134;2022-08-04T14:03:38;7.65;;;4.03;;
20067;SDS011;10194;50.824;7.134;2022-08-04T14:06:20;8.85;;;3.03;;
20067;SDS011;10194;50.824;7.134;2022-08-04T14:09:00;5.82;;;2.63;;
20067;SDS011;10194;50.824;7.134;2022-08-04T14:11:50;4.35;;;2.40;;
20067;SDS011;10194;50.824;7.134;2022-08-04T14:14:24;3.47;;;2.13;;
20067;SDS011;10194;50.824;7.134;2022-08-04T14:25:02;5.13;;;2.70;;
20067;SDS011;10194;50.824;7.134;2022-08-04T14:27:53;3.83;;;2.40;;
20067;SDS011;10194;50.824;7.134;2022-08-04T14:33:00;8.93;;;3.35;;
20067;SDS011;10194;50.824;7.134;2022-08-04T14:35:31;11.55;;;3.65;;
20067;SDS011;10194;50.824;7.134;2022-08-04T14:37:59;7.53;;;2.60;;
20067;SDS011;10194;50.824;7.134;2022-08-04T14:40:31;3.65;;;2.50;;
20067;SDS011;10194;50.824;7.134;2022-08-04T14:43:03;3.78;;;3.10;;
20067;SDS011;10194;50.824;7.134;2022-08-04T14:47:59;7.43;;;3.55;;
20067;SDS011;10194;50.824;7.134;2022-08-04T14:53:15;6.07;;;3.20;;
20067;SDS011;10194;50.824;7.134;2022-08-04T14:55:54;5.15;;;2.90;;
20067;SDS011;10194;50.824;7.134;2022-08-04T14:58:24;3.42;;;2.90;;
20067;SDS011;10194;50.824;7.134;2022-08-04T15:00:59;3.92;;;3.00;;
20067;SDS011;10194;50.824;7.134;2022-08-04T15:03:28;6.55;;;3.25;;
20067;SDS011;10194;50.824;7.134;2022-08-04T15:05:56;5.53;;;2.70;;
20067;SDS011;10194;50.824;7.134;2022-08-04T15:08:24;4.30;;;3.30;;
20067;SDS011;10194;50.824;7.134;2022-08-04T15:10:52;5.95;;;3.90;;
20067;SDS011;10194;50.824;7.134;2022-08-04T15:13:22;4.38;;;3.47;;
20067;SDS011;10194;50.824;7.134;2022-08-04T15:15:50;6.25;;;3.25;;
20067;SDS011;10194;50.824;7.134;2022-08-04T15:18:16;4.88;;;3.55;;
20067;SDS011;10194;50.824;7.134;2022-08-04T15:20:42;7.93;;;3.83;;
20067;SDS011;10194;50.824;7.134;2022-08-04T15:23:08;4.80;;;3.92;;
20067;SDS011;10194;50.824;7.134;2022-08-04T15:25:45;7.43;;;4.60;;
20067;SDS011;10194;50.824;7.134;2022-08-04T15:28:17;6.38;;;4.70;;
20067;SDS011;10194;50.824;7.134;2022-08-04T15:30:46;6.78;;;3.70;;
20067;SDS011;10194;50.824;7.134;2022-08-04T15:33:14;6.30;;;3.45;;
20067;SDS011;10194;50.824;7.134;2022-08-04T15:35:45;4.50;;;3.05;;
20067;SDS011;10194;50.824;7.134;2022-08-04T15:38:31;5.95;;;3.58;;
20067;SDS011;10194;50.824;7.134;2022-08-04T15:41:08;5.60;;;4.47;;
20067;SDS011;10194;50.824;7.134;2022-08-04T15:49:23;4.85;;;3.17;;
20067;SDS011;10194;50.824;7.134;2022-08-04T15:51:59;6.75;;;3.90;;
20067;SDS011;10194;50.824;7.134;2022-08-04T15:54:30;5.13;;;3.80;;
20067;SDS011;10194;50.824;7.134;2022-08-04T15:56:57;7.30;;;3.88;;
20067;SDS011;10194;50.824;7.134;2022-08-04T16:02:34;6.47;;;4.90;;
20067;SDS011;10194;50.824;7.134;2022-08-04T16:07:56;6.63;;;4.03;;
20067;SDS011;10194;50.824;7.134;2022-08-04T16:10:42;4.78;;;3.60;;
20067;SDS011;10194;50.824;7.134;2022-08-04T16:13:14;11.32;;;3.05;;
20067;SDS011;10194;50.824;7.134;2022-08-04T16:15:49;7.85;;;3.45;;
20067;SDS011;10194;50.824;7.134;2022-08-04T16:20:54;3.13;;;2.70;;
20067;SDS011;10194;50.824;7.134;2022-08-04T16:26:39;8.82;;;3.55;;
20067;SDS011;10194;50.824;7.134;2022-08-04T16:29:00;6.38;;;3.47;;
20067;SDS011;10194;50.824;7.134;2022-08-04T16:31:28;9.68;;;3.40;;
20067;SDS011;10194;50.824;7.134;2022-08-04T16:33:58;11.90;;;4.15;;
20067;SDS011;10194;50.824;7.134;2022-08-04T16:39:33;11.15;;;3.60;;
20067;SDS011;10194;50.824;7.134;2022-08-04T16:42:00;11.80;;;4.75;;
20067;SDS011;10194;50.824;7.134;2022-08-04T16:45:37;10.38;;;4.38;;
20067;SDS011;10194;50.824;7.134;2022-08-04T16:50:15;10.75;;;4.25;;
20067;SDS011;10194;50.824;7.134;2022-08-04T16:52:52;7.97;;;4.25;;
20067;SDS011;10194;50.824;7.134;2022-08-04T16:55:23;9.30;;;4.00;;
20067;SDS011;10194;50.824;7.134;2022-08-04T16:57:52;14.98;;;5.32;;
20067;SDS011;10194;50.824;7.134;2022-08-04T17:00:35;8.10;;;4.82;;
20067;SDS011;10194;50.824;7.134;2022-08-04T17:03:02;7.93;;;4.53;;
20067;SDS011;10194;50.824;7.134;2022-08-04T17:05:33;6.65;;;4.40;;
20067;SDS011;10194;50.824;7.134;2022-08-04T17:08:01;12.52;;;4.88;;
20067;SDS011;10194;50.824;7.134;2022-08-04T17:10:32;7.68;;;4.47;;
20067;SDS011;10194;50.824;7.134;2022-08-04T17:13:26;8.60;;;4.45;;
20067;SDS011;10194;50.824;7.134;2022-08-04T17:15:55;8.85;;;4.32;;
20067;SDS011;10194;50.824;7.134;2022-08-04T17:18:24;7.82;;;4.45;;
20067;SDS011;10194;50.824;7.134;2022-08-04T17:20:54;7.20;;;4.47;;
20067;SDS011;10194;50.824;7.134;2022-08-04T17:25:52;8.80;;;5.07;;
20067;SDS011;10194;50.824;7.134;2022-08-04T17:28:23;7.93;;;5.57;;
20067;SDS011;10194;50.824;7.134;2022-08-04T17:30:50;10.32;;;5.13;;
20067;SDS011;10194;50.824;7.134;2022-08-04T17:33:18;8.48;;;5.60;;
20067;SDS011;10194;50.824;7.134;2022-08-04T17:35:44;8.85;;;5.85;;
20067;SDS011;10194;50.824;7.134;2022-08-04T17:38:12;12.40;;;6.20;;
20067;SDS011;10194;50.824;7.134;2022-08-04T17:40:51;9.65;;;6.75;;
20067;SDS011;10194;50.824;7.134;2022-08-04T17:43:48;8.38;;;6.03;;
20067;SDS011;10194;50.824;7.134;2022-08-04T17:56:52;10.88;;;6.88;;
20067;SDS011;10194;50.824;7.134;2022-08-04T17:59:27;8.38;;;6.47;;
20067;SDS011;10194;50.824;7.134;2022-08-04T18:02:30;11.35;;;6.78;;
20067;SDS011;10194;50.824;7.134;2022-08-04T18:04:57;7.93;;;6.50;;
20067;SDS011;10194;50.824;7.134;2022-08-04T18:07:35;10.27;;;7.20;;
20067;SDS011;10194;50.824;7.134;2022-08-04T18:10:03;11.18;;;6.93;;
20067;SDS011;10194;50.824;7.134;2022-08-04T18:12:30;9.27;;;6.38;;
20067;SDS011;10194;50.824;7.134;2022-08-04T18:15:02;7.90;;;6.45;;
20067;SDS011;10194;50.824;7.134;2022-08-04T18:17:49;7.40;;;6.20;;
20067;SDS011;10194;50.824;7.134;2022-08-04T18:20:16;9.43;;;6.93;;
20067;SDS011;10194;50.824;7.134;2022-08-04T18:22:53;10.10;;;7.60;;
20067;SDS011;10194;50.824;7.134;2022-08-04T18:25:19;11.45;;;6.63;;
20067;SDS011;10194;50.824;7.134;2022-08-04T18:27:52;8.88;;;6.55;;
20067;SDS011;10194;50.824;7.134;2022-08-04T18:30:24;9.82;;;7.32;;
20067;SDS011;10194;50.824;7.134;2022-08-04T18:32:53;10.38;;;7.32;;
20067;SDS011;10194;50.824;7.134;2022-08-04T18:35:19;11.95;;;7.97;;
20067;SDS011;10194;50.824;7.134;2022-08-04T18:37:46;11.20;;;7.30;;
20067;SDS011;10194;50.824;7.134;2022-08-04T18:40:14;13.85;;;7.90;;
20067;SDS011;10194;50.824;7.134;2022-08-04T18:42:40;14.70;;;7.60;;
20067;SDS011;10194;50.824;7.134;2022-08-04T18:45:06;11.13;;;8.10;;
20067;SDS011;10194;50.824;7.134;2022-08-04T18:47:37;14.80;;;8.32;;
20067;SDS011;10194;50.824;7.134;2022-08-04T18:50:03;12.88;;;8.43;;
20067;SDS011;10194;50.824;7.134;2022-08-04T18:52:30;10.30;;;7.35;;
20067;SDS011;10194;50.824;7.134;2022-08-04T18:54:56;11.80;;;7.28;;
20067;SDS011;10194;50.824;7.134;2022-08-04T18:57:23;12.25;;;7.28;;
20067;SDS011;10194;50.824;7.134;2022-08-04T18:59:52;10.15;;;7.45;;
20067;SDS011;10194;50.824;7.134;2022-08-04T19:02:19;8.20;;;6.68;;
20067;SDS011;10194;50.824;7.134;2022-08-04T19:04:46;8.80;;;6.38;;
20067;SDS011;10194;50.824;7.134;2022-08-04T19:07:13;9.48;;;7.10;;
20067;SDS011;10194;50.824;7.134;2022-08-04T19:09:39;11.57;;;6.43;;
20067;SDS011;10194;50.824;7.134;2022-08-04T19:12:06;9.80;;;6.72;;
20067;SDS011;10194;50.824;7.134;2022-08-04T19:14:32;15.10;;;6.97;;
20067;SDS011;10194;50.824;7.134;2022-08-04T19:16:58;12.40;;;7.13;;
20067;SDS011;10194;50.824;7.134;2022-08-04T19:19:24;10.07;;;7.70;;
20067;SDS011;10194;50.824;7.134;2022-08-04T19:21:50;10.10;;;7.22;;
20067;SDS011;10194;50.824;7.134;2022-08-04T19:24:16;9.55;;;7.10;;
20067;SDS011;10194;50.824;7.134;2022-08-04T19:26:42;8.93;;;7.22;;
20067;SDS011;10194;50.824;7.134;2022-08-04T19:29:08;10.13;;;7.03;;
20067;SDS011;10194;50.824;7.134;2022-08-04T19:31:33;11.95;;;6.88;;
20067;SDS011;10194;50.824;7.134;2022-08-04T19:34:00;9.50;;;7.00;;
20067;SDS011;10194;50.824;7.134;2022-08-04T19:36:27;12.35;;;7.80;;
20067;SDS011;10194;50.824;7.134;2022-08-04T19:38:54;11.40;;;7.07;;
20067;SDS011;10194;50.824;7.134;2022-08-04T19:41:22;11.88;;;7.25;;
20067;SDS011;10194;50.824;7.134;2022-08-04T19:43:47;11.68;;;7.65;;
20067;SDS011;10194;50.824;7.134;2022-08-04T19:46:14;13.25;;;8.27;;
20067;SDS011;10194;50.824;7.134;2022-08-04T19:48:40;10.52;;;8.13;;
20067;SDS011;10194;50.824;7.134;2022-08-04T19:51:08;12.68;;;8.35;;
20067;SDS011;10194;50.824;7.134;2022-08-04T19:53:34;12.38;;;7.72;;
20067;SDS011;10194;50.824;7.134;2022-08-04T19:56:00;10.48;;;7.85;;
20067;SDS011;10194;50.824;7.134;2022-08-04T19:58:26;12.52;;;8.18;;
20067;SDS011;10194;50.824;7.134;2022-08-04T20:00:51;10.95;;;7.50;;
20067;SDS011;10194;50.824;7.134;2022-08-04T20:03:18;12.80;;;7.65;;
20067;SDS011;10194;50.824;7.134;2022-08-04T20:05:43;9.48;;;7.22;;
20067;SDS011;10194;50.824;7.134;2022-08-04T20:08:10;12.20;;;7.43;;
20067;SDS011;10194;50.824;7.134;2022-08-04T20:10:36;11.55;;;7.55;;
20067;SDS011;10194;50.824;7.134;2022-08-04T20:13:03;11.55;;;7.05;;
20067;SDS011;10194;50.824;7.134;2022-08-04T20:15:30;11.20;;;8.05;;
20067;SDS011;10194;50.824;7.134;2022-08-04T20:17:56;14.23;;;7.60;;
20067;SDS011;10194;50.824;7.134;2022-08-04T20:20:23;10.57;;;6.47;;
20067;SDS011;10194;50.824;7.134;2022-08-04T20:22:49;9.02;;;6.60;;
20067;SDS011;10194;50.824;7.134;2022-08-04T20:25:14;9.50;;;6.50;;
20067;SDS011;10194;50.824;7.134;2022-08-04T20:27:41;8.38;;;5.95;;
20067;SDS011;10194;50.824;7.134;2022-08-04T20:30:07;8.02;;;5.75;;
20067;SDS011;10194;50.824;7.134;2022-08-04T20:32:34;12.32;;;5.93;;
20067;SDS011;10194;50.824;7.134;2022-08-04T20:35:00;9.82;;;5.18;;
20067;SDS011;10194;50.824;7.134;2022-08-04T20:37:26;9.85;;;4.90;;
20067;SDS011;10194;50.824;7.134;2022-08-04T20:39:56;7.55;;;4.95;;
20067;SDS011;10194;50.824;7.134;2022-08-04T20:42:25;8.57;;;4.90;;
20067;SDS011;10194;50.824;7.134;2022-08-04T20:44:54;7.80;;;4.90;;